createdAt,value
2023-04-24T06:54:11.099Z,13.5
2023-04-24T06:59:44.292Z,13.1
2023-04-24T07:05:20.336Z,13.3
2023-04-24T07:10:56.644Z,13.5
2023-04-24T07:16:33.006Z,13.2
2023-04-24T07:22:09.269Z,13.2
2023-04-24T07:27:44.604Z,13.6
2023-04-24T07:33:21.919Z,14
2023-04-24T07:38:58.314Z,14.4
2023-04-24T07:44:35.238Z,14.7
2023-04-24T07:50:11.464Z,14.9
2023-04-24T07:55:47.991Z,15.1
2023-04-24T08:01:23.246Z,15.1
2023-04-24T08:06:58.863Z,15.3
2023-04-24T08:12:34.961Z,15.8
2023-04-24T08:18:10.633Z,16.3
2023-04-24T08:23:47.200Z,16.3
2023-04-24T08:29:23.948Z,16.7
2023-04-24T08:35:00.523Z,16.9
2023-04-24T08:40:37.454Z,16.8
2023-04-24T08:46:13.455Z,16.9
2023-04-24T08:52:11.063Z,16.8
2023-04-24T08:57:44.537Z,16.8
2023-04-24T09:03:20.284Z,17.1
2023-04-24T09:08:58.573Z,17
2023-04-24T09:14:34.431Z,17.2
2023-04-24T09:20:09.846Z,17.7
2023-04-24T09:25:46.018Z,18.5
2023-04-24T09:31:21.978Z,18.5
2023-04-24T09:36:59.716Z,19.1
2023-04-24T09:42:34.695Z,19.4
2023-04-24T09:48:10.196Z,19.7
2023-04-24T09:54:09.028Z,19.2
2023-04-24T09:59:42.224Z,19.1
2023-04-24T10:05:21.116Z,19.5
2023-04-24T10:10:58.176Z,19
2023-04-24T10:16:34.944Z,20.1
2023-04-24T10:22:10.479Z,19.9
2023-04-24T10:27:45.906Z,20.6
2023-04-24T10:33:21.107Z,20.7
2023-04-24T10:38:56.482Z,21
2023-04-24T10:44:31.544Z,21.9
2023-04-24T10:50:07.405Z,22.1
2023-04-24T10:55:43.475Z,22.3
2023-04-24T11:01:18.184Z,21.6
2023-04-24T11:06:56.253Z,22.2
2023-04-24T11:12:32.457Z,22.9
2023-04-24T11:18:08.407Z,23.6
2023-04-24T11:23:44.000Z,22
2023-04-24T11:29:22.155Z,22.5
2023-04-24T11:35:02.630Z,22.5
2023-04-24T11:40:38.092Z,23.6
2023-04-24T11:46:17.298Z,23
2023-04-24T11:52:14.539Z,23.2
2023-04-24T11:57:48.484Z,25.5
2023-04-24T12:03:24.362Z,24.2
2023-04-24T12:09:08.165Z,24.4
2023-04-24T12:14:55.071Z,24.4
2023-04-24T12:20:31.576Z,25.2
2023-04-24T12:26:09.656Z,23.6
2023-04-24T12:31:44.976Z,23.6
2023-04-24T12:37:22.000Z,24
2023-04-24T12:42:58.694Z,24.3
2023-04-24T12:48:43.193Z,26.5
2023-04-24T12:54:21.912Z,26.4
2023-04-24T12:59:58.490Z,26.1
2023-04-24T13:05:34.076Z,27.4
2023-04-24T13:11:10.156Z,25.6
2023-04-24T13:16:46.463Z,25.8
2023-04-24T13:22:22.320Z,26.1
2023-04-24T13:27:57.408Z,25.1
2023-04-24T13:33:32.931Z,24.3
2023-04-24T13:39:07.929Z,23.3
2023-04-24T13:44:43.368Z,22.7
2023-04-24T13:50:18.370Z,22.6
2023-04-24T13:55:55.747Z,22.5
2023-04-24T14:01:32.685Z,22.8
2023-04-24T14:07:08.354Z,21.9
2023-04-24T14:12:45.392Z,22
2023-04-24T14:18:20.866Z,22
2023-04-24T14:23:56.053Z,22.4
2023-04-24T14:29:32.336Z,23.2
2023-04-24T14:35:13.755Z,22.7
2023-04-24T14:46:49.678Z,21.3
2023-04-24T14:52:47.143Z,21
2023-04-24T14:58:21.282Z,21.4
2023-04-24T15:03:59.318Z,21.3
2023-04-24T15:09:37.895Z,21.8
2023-04-24T15:15:15.718Z,22.2
2023-04-24T15:20:51.299Z,22.6
2023-04-24T15:26:27.833Z,23.4
2023-04-24T15:32:04.790Z,23.6
2023-04-24T15:37:45.401Z,23.6
2023-04-24T15:43:21.303Z,23.3
2023-04-24T15:48:57.108Z,22.7
2023-04-24T15:54:32.107Z,22
2023-04-24T16:00:07.966Z,21.5
2023-04-24T16:05:46.192Z,21.7
2023-04-24T16:11:21.345Z,21.2
2023-04-24T16:16:57.123Z,20.8
2023-04-24T16:22:32.337Z,20.2
2023-04-24T16:28:08.665Z,21.4
2023-04-24T16:33:45.733Z,20.8
2023-04-24T16:39:21.229Z,19.7
2023-04-24T16:44:57.111Z,19.5
2023-04-24T16:50:33.408Z,19.4
2023-04-24T16:56:08.737Z,19.5
2023-04-24T17:01:44.076Z,18.9
2023-04-24T17:07:19.330Z,18.7
2023-04-24T17:12:54.192Z,18.4
2023-04-24T17:18:29.612Z,18.1
2023-04-24T17:24:05.107Z,17.8
2023-04-24T17:29:40.562Z,17.4
2023-04-24T17:35:21.486Z,17.2
2023-04-24T17:41:00.630Z,17.2
2023-04-24T17:46:37.021Z,17.1
2023-04-24T17:52:13.387Z,17
2023-04-24T17:57:49.129Z,16.9
2023-04-24T18:03:25.030Z,16.8
2023-04-24T18:09:03.444Z,16.7
2023-04-24T18:14:38.847Z,16.5
2023-04-24T18:20:15.090Z,16.4
2023-04-24T18:25:51.545Z,16.3
2023-04-24T18:31:27.157Z,16.1
2023-04-24T18:37:03.228Z,16
2023-04-24T18:42:38.955Z,15.9
2023-04-24T18:48:16.614Z,15.8
2023-04-24T18:53:51.789Z,15.7
2023-04-24T18:59:28.039Z,15.7
2023-04-24T19:05:07.844Z,15.6
2023-04-24T19:10:42.942Z,15.6
2023-04-24T19:16:18.629Z,15.5
2023-04-24T19:21:55.321Z,15.4
2023-04-24T19:27:31.458Z,15.4
2023-04-24T19:33:06.569Z,15.4
2023-04-24T19:38:42.758Z,15.3
2023-04-24T19:44:18.032Z,15.4
2023-04-24T19:49:54.694Z,15.4
2023-04-24T19:55:31.681Z,15.4
2023-04-24T20:01:11.755Z,15.3
2023-04-24T20:06:47.348Z,15.3
2023-04-24T20:12:23.326Z,15.3
2023-04-24T20:17:59.625Z,15.2
2023-04-24T20:23:35.115Z,15
2023-04-24T20:29:11.236Z,15
2023-04-24T20:34:48.224Z,15
